sensor_id;sensor_type;location;lat;lon;timestamp;pressure;altitude;pressure_sealevel;temperature;humidity
45789;BME280;31492;54.856;26.318;2022-07-25T00:03:39;998.3;;;18.3;100
45789;BME280;31492;54.856;26.318;2022-07-25T00:08:39;998.3;;;18.3;100
45789;BME280;31492;54.856;26.318;2022-07-25T00:13:39;998.3;;;18.3;100
45789;BME280;31492;54.856;26.318;2022-07-25T00:18:39;998.3;;;18.3;100
45789;BME280;31492;54.856;26.318;2022-07-25T00:23:39;998.3;;;18.3;100
45789;BME280;31492;54.856;26.318;2022-07-25T00:28:39;998.3;;;18.3;100
45789;BME280;31492;54.856;26.318;2022-07-25T00:33:39;998.3;;;18.3;100
45789;BME280;31492;54.856;26.318;2022-07-25T00:38:39;998.3;;;18.3;100
45789;BME280;31492;54.856;26.318;2022-07-25T00:43:42;998.3;;;18.3;100
45789;BME280;31492;54.856;26.318;2022-07-25T00:48:39;998.3;;;18.3;100
45789;BME280;31492;54.856;26.318;2022-07-25T00:53:39;998.3;;;18.3;100
45789;BME280;31492;54.856;26.318;2022-07-25T00:58:39;998.3;;;18.3;100
45789;BME280;31492;54.856;26.318;2022-07-25T01:03:39;998.3;;;18.3;100
45789;BME280;31492;54.856;26.318;2022-07-25T01:08:39;998.3;;;18.3;100
45789;BME280;31492;54.856;26.318;2022-07-25T01:13:39;998.3;;;18.3;100
45789;BME280;31492;54.856;26.318;2022-07-25T01:18:39;998.9;;;16.1;100
45789;BME280;31492;54.856;26.318;2022-07-25T01:23:39;998.9;;;16.1;100
45789;BME280;31492;54.856;26.318;2022-07-25T01:28:39;998.9;;;16;100
45789;BME280;31492;54.856;26.318;2022-07-25T01:33:39;998.9;;;16;100
45789;BME280;31492;54.856;26.318;2022-07-25T01:38:39;998.9;;;16;100
45789;BME280;31492;54.856;26.318;2022-07-25T01:43:39;998.9;;;16;100
45789;BME280;31492;54.856;26.318;2022-07-25T01:48:39;998.9;;;15.9;100
45789;BME280;31492;54.856;26.318;2022-07-25T01:53:39;999;;;15.7;100
45789;BME280;31492;54.856;26.318;2022-07-25T01:58:39;999.1;;;15.5;100
45789;BME280;31492;54.856;26.318;2022-07-25T02:03:39;999.1;;;15.5;100
45789;BME280;31492;54.856;26.318;2022-07-25T02:08:39;999.1;;;15.5;100
45789;BME280;31492;54.856;26.318;2022-07-25T02:13:39;999.1;;;15.4;100
45789;BME280;31492;54.856;26.318;2022-07-25T02:18:39;999.2;;;15.4;100
45789;BME280;31492;54.856;26.318;2022-07-25T02:23:39;999.2;;;15.3;100
45789;BME280;31492;54.856;26.318;2022-07-25T02:28:39;999.3;;;15.2;100
45789;BME280;31492;54.856;26.318;2022-07-25T02:33:39;999.3;;;15.1;100
45789;BME280;31492;54.856;26.318;2022-07-25T02:38:39;999.2;;;15;100
45789;BME280;31492;54.856;26.318;2022-07-25T02:43:39;999.2;;;14.9;100
45789;BME280;31492;54.856;26.318;2022-07-25T02:48:39;999.2;;;14.9;100
45789;BME280;31492;54.856;26.318;2022-07-25T02:53:39;999.2;;;14.9;100
45789;BME280;31492;54.856;26.318;2022-07-25T02:58:39;999.3;;;14.8;100
45789;BME280;31492;54.856;26.318;2022-07-25T03:03:39;999.4;;;14.9;100
45789;BME280;31492;54.856;26.318;2022-07-25T03:08:39;999.4;;;14.9;100
45789;BME280;31492;54.856;26.318;2022-07-25T03:13:39;999.4;;;15;100
45789;BME280;31492;54.856;26.318;2022-07-25T03:18:39;999.4;;;15;100
45789;BME280;31492;54.856;26.318;2022-07-25T03:23:39;999.4;;;15;100
45789;BME280;31492;54.856;26.318;2022-07-25T03:28:39;999.5;;;15.1;100
45789;BME280;31492;54.856;26.318;2022-07-25T03:33:39;999.5;;;15.1;100
45789;BME280;31492;54.856;26.318;2022-07-25T03:38:39;999.5;;;15.2;100
45789;BME280;31492;54.856;26.318;2022-07-25T03:43:39;999.5;;;15.3;100
45789;BME280;31492;54.856;26.318;2022-07-25T03:48:39;999.5;;;15.3;100
45789;BME280;31492;54.856;26.318;2022-07-25T03:53:39;999.5;;;15.4;100
45789;BME280;31492;54.856;26.318;2022-07-25T03:58:39;999.5;;;15.4;100
45789;BME280;31492;54.856;26.318;2022-07-25T04:03:39;999.5;;;15.4;100
45789;BME280;31492;54.856;26.318;2022-07-25T04:08:39;999.5;;;15.4;100
45789;BME280;31492;54.856;26.318;2022-07-25T04:13:39;999.5;;;15.5;100
45789;BME280;31492;54.856;26.318;2022-07-25T04:18:39;999.5;;;15.6;100
45789;BME280;31492;54.856;26.318;2022-07-25T04:23:39;999.5;;;15.6;100
45789;BME280;31492;54.856;26.318;2022-07-25T04:28:39;999.4;;;15.6;100
45789;BME280;31492;54.856;26.318;2022-07-25T04:33:39;999.4;;;15.6;100
45789;BME280;31492;54.856;26.318;2022-07-25T04:38:39;999.4;;;15.6;100
45789;BME280;31492;54.856;26.318;2022-07-25T04:43:39;999.4;;;15.7;100
45789;BME280;31492;54.856;26.318;2022-07-25T04:48:39;999.3;;;15.8;100
45789;BME280;31492;54.856;26.318;2022-07-25T04:53:39;999.3;;;15.8;100
45789;BME280;31492;54.856;26.318;2022-07-25T04:58:39;999.3;;;15.9;100
45789;BME280;31492;54.856;26.318;2022-07-25T05:03:39;999.3;;;15.8;100
45789;BME280;31492;54.856;26.318;2022-07-25T05:08:39;999.4;;;16;100
45789;BME280;31492;54.856;26.318;2022-07-25T05:13:39;999.4;;;16.1;100
45789;BME280;31492;54.856;26.318;2022-07-25T05:18:39;999.4;;;16.3;100
45789;BME280;31492;54.856;26.318;2022-07-25T05:23:39;999.4;;;16.4;100
45789;BME280;31492;54.856;26.318;2022-07-25T05:28:39;999.4;;;16.5;100
45789;BME280;31492;54.856;26.318;2022-07-25T05:33:39;999.4;;;16.7;100
45789;BME280;31492;54.856;26.318;2022-07-25T05:38:39;999.4;;;16.9;100
45789;BME280;31492;54.856;26.318;2022-07-25T05:43:39;999.4;;;17.1;100
45789;BME280;31492;54.856;26.318;2022-07-25T05:48:39;999.4;;;17.3;100
45789;BME280;31492;54.856;26.318;2022-07-25T05:53:39;999.4;;;17.4;100
45789;BME280;31492;54.856;26.318;2022-07-25T05:58:39;999.4;;;17.7;100
45789;BME280;31492;54.856;26.318;2022-07-25T06:03:39;999.4;;;17.8;100
45789;BME280;31492;54.856;26.318;2022-07-25T06:08:39;999.4;;;18.1;100
45789;BME280;31492;54.856;26.318;2022-07-25T06:13:39;999.4;;;18.1;100
45789;BME280;31492;54.856;26.318;2022-07-25T06:18:39;999.4;;;18.4;100
45789;BME280;31492;54.856;26.318;2022-07-25T06:23:39;999.4;;;18.4;100
45789;BME280;31492;54.856;26.318;2022-07-25T06:28:39;999.4;;;18.5;100
45789;BME280;31492;54.856;26.318;2022-07-25T06:33:39;999.4;;;18.7;100
45789;BME280;31492;54.856;26.318;2022-07-25T06:38:39;999.3;;;18.8;100
45789;BME280;31492;54.856;26.318;2022-07-25T06:43:39;999.3;;;19;100
45789;BME280;31492;54.856;26.318;2022-07-25T06:48:39;999.4;;;19.3;100
45789;BME280;31492;54.856;26.318;2022-07-25T06:53:39;999.3;;;20;100
45789;BME280;31492;54.856;26.318;2022-07-25T06:58:39;999.3;;;20.6;100
45789;BME280;31492;54.856;26.318;2022-07-25T07:03:39;999.2;;;20.7;100
45789;BME280;31492;54.856;26.318;2022-07-25T07:08:39;999.1;;;21.7;100
45789;BME280;31492;54.856;26.318;2022-07-25T07:13:39;999.1;;;22.7;100
45789;BME280;31492;54.856;26.318;2022-07-25T07:18:39;999.1;;;22.9;100
45789;BME280;31492;54.856;26.318;2022-07-25T07:23:39;999;;;24.1;100
45789;BME280;31492;54.856;26.318;2022-07-25T07:28:39;999;;;24.9;100
45789;BME280;31492;54.856;26.318;2022-07-25T07:33:39;999;;;24.9;100
45789;BME280;31492;54.856;26.318;2022-07-25T07:38:39;999;;;25.1;99.3
45789;BME280;31492;54.856;26.318;2022-07-25T07:43:39;999;;;25.3;96.7
45789;BME280;31492;54.856;26.318;2022-07-25T07:48:39;999;;;25.2;97.3
45789;BME280;31492;54.856;26.318;2022-07-25T07:53:39;998.9;;;26.5;87.9
45789;BME280;31492;54.856;26.318;2022-07-25T07:58:39;998.8;;;27.2;79
45789;BME280;31492;54.856;26.318;2022-07-25T08:03:39;998.9;;;27.2;68.3
45789;BME280;31492;54.856;26.318;2022-07-25T08:08:39;998.9;;;26;82.3
45789;BME280;31492;54.856;26.318;2022-07-25T08:13:39;998.9;;;26.3;79.8
45789;BME280;31492;54.856;26.318;2022-07-25T08:18:39;998.9;;;27.1;80.2
45789;BME280;31492;54.856;26.318;2022-07-25T08:23:39;998.9;;;28.3;62.1
45789;BME280;31492;54.856;26.318;2022-07-25T08:28:39;998.9;;;29.5;54.6
45789;BME280;31492;54.856;26.318;2022-07-25T08:33:39;998.9;;;29.8;52.1
45789;BME280;31492;54.856;26.318;2022-07-25T08:38:39;998.9;;;30.1;48.8
45789;BME280;31492;54.856;26.318;2022-07-25T08:43:39;998.9;;;29.9;47
45789;BME280;31492;54.856;26.318;2022-07-25T08:48:39;999;;;30.2;45.8
45789;BME280;31492;54.856;26.318;2022-07-25T08:53:39;999;;;29.9;47.4
45789;BME280;31492;54.856;26.318;2022-07-25T08:58:39;999;;;30.5;48.2
45789;BME280;31492;54.856;26.318;2022-07-25T09:03:40;999;;;30;44.4
45789;BME280;31492;54.856;26.318;2022-07-25T09:08:48;999;;;29;52.2
45789;BME280;31492;54.856;26.318;2022-07-25T09:13:39;999;;;29.8;53.2
45789;BME280;31492;54.856;26.318;2022-07-25T09:18:39;999.1;;;29.1;52.8
45789;BME280;31492;54.856;26.318;2022-07-25T09:23:39;999;;;29.5;51.1
45789;BME280;31492;54.856;26.318;2022-07-25T09:28:41;999;;;28.8;57.6
45789;BME280;31492;54.856;26.318;2022-07-25T09:33:47;999.1;;;28.9;55.3
45789;BME280;31492;54.856;26.318;2022-07-25T09:38:39;999.1;;;27.9;56.2
45789;BME280;31492;54.856;26.318;2022-07-25T09:43:40;999.1;;;27.3;68.7
45789;BME280;31492;54.856;26.318;2022-07-25T09:48:39;999.1;;;27.4;65.5
45789;BME280;31492;54.856;26.318;2022-07-25T09:53:39;999;;;27.4;68.3
45789;BME280;31492;54.856;26.318;2022-07-25T09:58:39;999;;;27.9;56.9
45789;BME280;31492;54.856;26.318;2022-07-25T10:08:39;999;;;27.2;68.7
45789;BME280;31492;54.856;26.318;2022-07-25T10:13:39;999;;;28.6;60.8
45789;BME280;31492;54.856;26.318;2022-07-25T10:18:45;998.9;;;28.3;58.4
45789;BME280;31492;54.856;26.318;2022-07-25T10:23:39;998.9;;;28.8;56.7
45789;BME280;31492;54.856;26.318;2022-07-25T10:28:43;998.9;;;29.7;51.5
45789;BME280;31492;54.856;26.318;2022-07-25T10:33:40;998.9;;;29;54.3
45789;BME280;31492;54.856;26.318;2022-07-25T10:38:39;998.9;;;30;52.3
45789;BME280;31492;54.856;26.318;2022-07-25T10:43:39;998.9;;;29.8;48
45789;BME280;31492;54.856;26.318;2022-07-25T10:48:39;998.9;;;30.2;47.6
45789;BME280;31492;54.856;26.318;2022-07-25T10:53:44;998.9;;;30.2;45.2
45789;BME280;31492;54.856;26.318;2022-07-25T10:58:56;998.9;;;30.5;44.3
45789;BME280;31492;54.856;26.318;2022-07-25T11:03:40;998.9;;;30.3;44.9
45789;BME280;31492;54.856;26.318;2022-07-25T11:08:39;998.8;;;30.3;42.2
45789;BME280;31492;54.856;26.318;2022-07-25T11:13:39;998.9;;;29.8;46
45789;BME280;31492;54.856;26.318;2022-07-25T11:18:40;998.8;;;29.4;47.5
45789;BME280;31492;54.856;26.318;2022-07-25T11:23:39;998.7;;;30;48.3
45789;BME280;31492;54.856;26.318;2022-07-25T11:28:42;998.7;;;30.9;44.3
45789;BME280;31492;54.856;26.318;2022-07-25T11:33:39;998.7;;;31.1;45.8
45789;BME280;31492;54.856;26.318;2022-07-25T11:38:39;998.6;;;31.6;42.5
45789;BME280;31492;54.856;26.318;2022-07-25T11:43:46;998.6;;;31.7;39.2
45789;BME280;31492;54.856;26.318;2022-07-25T11:48:39;998.7;;;31.3;39.7
45789;BME280;31492;54.856;26.318;2022-07-25T11:53:40;998.7;;;30.6;43.5
45789;BME280;31492;54.856;26.318;2022-07-25T11:58:39;998.6;;;31.4;41.8
45789;BME280;31492;54.856;26.318;2022-07-25T12:03:39;998.6;;;31.1;41.6
45789;BME280;31492;54.856;26.318;2022-07-25T12:08:40;998.6;;;29.8;46.7
45789;BME280;31492;54.856;26.318;2022-07-25T12:13:39;998.6;;;30.2;47.5
45789;BME280;31492;54.856;26.318;2022-07-25T12:18:39;998.5;;;31;42.8
45789;BME280;31492;54.856;26.318;2022-07-25T12:23:39;998.5;;;31.5;41.6
45789;BME280;31492;54.856;26.318;2022-07-25T12:28:39;998.5;;;30.6;40.4
45789;BME280;31492;54.856;26.318;2022-07-25T12:33:39;998.6;;;30.1;44.2
45789;BME280;31492;54.856;26.318;2022-07-25T12:38:39;998.6;;;30.9;45
45789;BME280;31492;54.856;26.318;2022-07-25T12:43:39;998.6;;;31.2;42
45789;BME280;31492;54.856;26.318;2022-07-25T12:48:39;998.5;;;31.6;38.6
45789;BME280;31492;54.856;26.318;2022-07-25T12:53:39;998.5;;;31.7;37.6
45789;BME280;31492;54.856;26.318;2022-07-25T12:58:39;998.4;;;31.8;38.2
45789;BME280;31492;54.856;26.318;2022-07-25T13:03:39;998.4;;;31.7;37.6
45789;BME280;31492;54.856;26.318;2022-07-25T13:08:39;998.5;;;31.4;38
45789;BME280;31492;54.856;26.318;2022-07-25T13:13:39;998.5;;;30.8;40.3
45789;BME280;31492;54.856;26.318;2022-07-25T13:18:39;998.4;;;30.7;38.2
45789;BME280;31492;54.856;26.318;2022-07-25T13:23:39;998.4;;;30.9;37.7
45789;BME280;31492;54.856;26.318;2022-07-25T13:28:39;998.3;;;31.1;38.2
45789;BME280;31492;54.856;26.318;2022-07-25T13:33:39;998.3;;;31.2;39.7
45789;BME280;31492;54.856;26.318;2022-07-25T13:38:39;998.3;;;30.3;39.5
45789;BME280;31492;54.856;26.318;2022-07-25T13:43:39;998.3;;;29.3;40
45789;BME280;31492;54.856;26.318;2022-07-25T13:48:39;998.2;;;29;41.3
45789;BME280;31492;54.856;26.318;2022-07-25T13:53:39;998.2;;;28.8;42.3
45789;BME280;31492;54.856;26.318;2022-07-25T13:58:39;998.2;;;28.7;41.6
45789;BME280;31492;54.856;26.318;2022-07-25T14:03:39;998.2;;;28.4;41.5
45789;BME280;31492;54.856;26.318;2022-07-25T14:08:39;998.2;;;28.1;42.9
45789;BME280;31492;54.856;26.318;2022-07-25T14:13:39;998.1;;;27.5;43.9
45789;BME280;31492;54.856;26.318;2022-07-25T14:18:39;998.1;;;27.2;44.9
45789;BME280;31492;54.856;26.318;2022-07-25T14:23:39;998.1;;;26.7;44.3
45789;BME280;31492;54.856;26.318;2022-07-25T14:28:39;998.1;;;26.3;47.9
45789;BME280;31492;54.856;26.318;2022-07-25T14:33:39;998.1;;;26;53.9
45789;BME280;31492;54.856;26.318;2022-07-25T14:38:39;998.1;;;25.6;54.6
45789;BME280;31492;54.856;26.318;2022-07-25T14:43:39;998;;;25.2;55.7
45789;BME280;31492;54.856;26.318;2022-07-25T14:48:39;998;;;25;60.9
45789;BME280;31492;54.856;26.318;2022-07-25T14:53:39;997.9;;;24.9;59.6
45789;BME280;31492;54.856;26.318;2022-07-25T14:58:39;997.9;;;24.6;68.6
45789;BME280;31492;54.856;26.318;2022-07-25T15:03:39;998;;;24.2;77
45789;BME280;31492;54.856;26.318;2022-07-25T15:08:39;997.9;;;24;80.4
45789;BME280;31492;54.856;26.318;2022-07-25T15:13:39;997.9;;;23.8;81
45789;BME280;31492;54.856;26.318;2022-07-25T15:18:39;997.9;;;23.7;85.7
45789;BME280;31492;54.856;26.318;2022-07-25T15:23:39;997.8;;;23.5;98.9
45789;BME280;31492;54.856;26.318;2022-07-25T15:28:39;997.8;;;23.3;95.9
45789;BME280;31492;54.856;26.318;2022-07-25T15:33:39;997.8;;;23.3;97.5
45789;BME280;31492;54.856;26.318;2022-07-25T15:38:39;997.8;;;23.1;97.4
45789;BME280;31492;54.856;26.318;2022-07-25T15:43:39;997.8;;;23;99.8
45789;BME280;31492;54.856;26.318;2022-07-25T15:48:39;997.8;;;23;88.9
45789;BME280;31492;54.856;26.318;2022-07-25T15:53:39;997.7;;;22.8;96.4
45789;BME280;31492;54.856;26.318;2022-07-25T15:58:39;997.8;;;22.6;100
45789;BME280;31492;54.856;26.318;2022-07-25T16:03:39;997.8;;;22.4;97.5
45789;BME280;31492;54.856;26.318;2022-07-25T16:08:39;997.8;;;22.3;100
45789;BME280;31492;54.856;26.318;2022-07-25T16:13:39;997.7;;;22.2;100
45789;BME280;31492;54.856;26.318;2022-07-25T16:18:39;997.7;;;22.1;100
45789;BME280;31492;54.856;26.318;2022-07-25T16:23:39;997.7;;;22;100
45789;BME280;31492;54.856;26.318;2022-07-25T16:28:39;997.7;;;21.9;100
45789;BME280;31492;54.856;26.318;2022-07-25T16:33:39;997.7;;;21.8;100
45789;BME280;31492;54.856;26.318;2022-07-25T16:38:39;997.7;;;21.7;100
45789;BME280;31492;54.856;26.318;2022-07-25T16:43:39;997.7;;;21.5;100
45789;BME280;31492;54.856;26.318;2022-07-25T16:48:39;997.7;;;21.4;100
45789;BME280;31492;54.856;26.318;2022-07-25T16:53:39;997.7;;;21.4;100
45789;BME280;31492;54.856;26.318;2022-07-25T16:58:39;997.6;;;21.3;100
45789;BME280;31492;54.856;26.318;2022-07-25T17:03:39;997.6;;;21.1;100
45789;BME280;31492;54.856;26.318;2022-07-25T17:08:39;997.6;;;21;100
45789;BME280;31492;54.856;26.318;2022-07-25T17:13:39;997.6;;;20.9;100
45789;BME280;31492;54.856;26.318;2022-07-25T17:18:39;997.6;;;20.8;100
45789;BME280;31492;54.856;26.318;2022-07-25T17:23:39;997.7;;;20.6;100
45789;BME280;31492;54.856;26.318;2022-07-25T17:28:39;997.7;;;20.5;100
45789;BME280;31492;54.856;26.318;2022-07-25T17:33:39;997.6;;;20.4;100
45789;BME280;31492;54.856;26.318;2022-07-25T17:38:39;997.7;;;20.3;100
45789;BME280;31492;54.856;26.318;2022-07-25T17:43:39;997.7;;;20.1;100
45789;BME280;31492;54.856;26.318;2022-07-25T17:48:39;997.7;;;20;100
45789;BME280;31492;54.856;26.318;2022-07-25T17:53:39;997.7;;;19.9;100
45789;BME280;31492;54.856;26.318;2022-07-25T17:58:39;997.7;;;19.5;100
45789;BME280;31492;54.856;26.318;2022-07-25T18:03:39;997.7;;;19.2;100
45789;BME280;31492;54.856;26.318;2022-07-25T18:08:39;997.8;;;19.1;100
45789;BME280;31492;54.856;26.318;2022-07-25T18:13:39;997.8;;;19;100
45789;BME280;31492;54.856;26.318;2022-07-25T18:18:39;997.9;;;18.8;100
45789;BME280;31492;54.856;26.318;2022-07-25T18:23:39;997.9;;;18.6;100
45789;BME280;31492;54.856;26.318;2022-07-25T18:28:39;997.9;;;18.6;100
45789;BME280;31492;54.856;26.318;2022-07-25T18:33:39;997.9;;;18.4;100
45789;BME280;31492;54.856;26.318;2022-07-25T18:38:39;998;;;18.3;100
45789;BME280;31492;54.856;26.318;2022-07-25T18:43:39;998;;;18.1;100
45789;BME280;31492;54.856;26.318;2022-07-25T18:48:39;998;;;18;100
45789;BME280;31492;54.856;26.318;2022-07-25T18:53:39;998;;;17.9;100
45789;BME280;31492;54.856;26.318;2022-07-25T18:58:39;997.9;;;17.7;100
45789;BME280;31492;54.856;26.318;2022-07-25T19:03:39;997.9;;;17.7;100
45789;BME280;31492;54.856;26.318;2022-07-25T19:08:39;997.9;;;17.5;100
45789;BME280;31492;54.856;26.318;2022-07-25T19:13:39;997.9;;;17.3;100
45789;BME280;31492;54.856;26.318;2022-07-25T19:18:39;997.9;;;17.1;100
45789;BME280;31492;54.856;26.318;2022-07-25T19:23:39;997.9;;;17;100
45789;BME280;31492;54.856;26.318;2022-07-25T19:28:39;997.9;;;17;100
45789;BME280;31492;54.856;26.318;2022-07-25T19:33:39;997.9;;;16.9;100
45789;BME280;31492;54.856;26.318;2022-07-25T19:38:39;997.9;;;16.9;100
45789;BME280;31492;54.856;26.318;2022-07-25T19:43:39;997.9;;;16.8;100
45789;BME280;31492;54.856;26.318;2022-07-25T19:48:39;997.9;;;16.8;100
45789;BME280;31492;54.856;26.318;2022-07-25T19:53:39;997.8;;;16.6;100
45789;BME280;31492;54.856;26.318;2022-07-25T19:58:39;997.8;;;16.6;100
45789;BME280;31492;54.856;26.318;2022-07-25T20:03:39;997.8;;;16.6;100
45789;BME280;31492;54.856;26.318;2022-07-25T20:08:39;997.8;;;16.4;100
45789;BME280;31492;54.856;26.318;2022-07-25T20:13:39;997.8;;;16.2;100
45789;BME280;31492;54.856;26.318;2022-07-25T20:18:39;997.8;;;16.2;100
45789;BME280;31492;54.856;26.318;2022-07-25T20:23:39;997.8;;;15.9;100
45789;BME280;31492;54.856;26.318;2022-07-25T20:28:39;997.8;;;15.8;100
45789;BME280;31492;54.856;26.318;2022-07-25T20:33:39;997.8;;;15.7;100
45789;BME280;31492;54.856;26.318;2022-07-25T20:38:39;997.8;;;15.7;100
45789;BME280;31492;54.856;26.318;2022-07-25T20:43:39;997.8;;;15.7;100
45789;BME280;31492;54.856;26.318;2022-07-25T20:48:39;997.7;;;15.7;100
45789;BME280;31492;54.856;26.318;2022-07-25T20:53:39;997.7;;;15.5;100
45789;BME280;31492;54.856;26.318;2022-07-25T20:58:39;997.7;;;15.5;100
45789;BME280;31492;54.856;26.318;2022-07-25T21:03:39;997.7;;;15.5;100
45789;BME280;31492;54.856;26.318;2022-07-25T21:08:39;997.7;;;15.1;100
45789;BME280;31492;54.856;26.318;2022-07-25T21:13:39;997.8;;;14.8;100
45789;BME280;31492;54.856;26.318;2022-07-25T21:18:39;997.7;;;14.7;100
45789;BME280;31492;54.856;26.318;2022-07-25T21:23:39;997.7;;;14.9;100
45789;BME280;31492;54.856;26.318;2022-07-25T21:28:39;997.7;;;14.9;100
45789;BME280;31492;54.856;26.318;2022-07-25T21:33:39;997.8;;;14.8;100
45789;BME280;31492;54.856;26.318;2022-07-25T21:38:39;997.8;;;14.8;100
45789;BME280;31492;54.856;26.318;2022-07-25T21:43:39;997.8;;;14.8;100
45789;BME280;31492;54.856;26.318;2022-07-25T21:48:39;997.8;;;14.8;100
45789;BME280;31492;54.856;26.318;2022-07-25T21:53:39;997.8;;;14.8;100
45789;BME280;31492;54.856;26.318;2022-07-25T21:58:39;997.8;;;14.8;100
45789;BME280;31492;54.856;26.318;2022-07-25T22:03:39;997.8;;;14.8;100
45789;BME280;31492;54.856;26.318;2022-07-25T22:08:39;997.8;;;14.8;100
45789;BME280;31492;54.856;26.318;2022-07-25T22:13:39;997.8;;;14.8;100
45789;BME280;31492;54.856;26.318;2022-07-25T22:18:39;997.8;;;14.8;100
45789;BME280;31492;54.856;26.318;2022-07-25T22:23:39;997.8;;;14.8;100
45789;BME280;31492;54.856;26.318;2022-07-25T22:28:39;997.8;;;14.8;100
45789;BME280;31492;54.856;26.318;2022-07-25T22:33:39;997.8;;;14.8;100
45789;BME280;31492;54.856;26.318;2022-07-25T22:38:39;997.8;;;14.8;100
45789;BME280;31492;54.856;26.318;2022-07-25T22:43:39;997.8;;;14.8;100
45789;BME280;31492;54.856;26.318;2022-07-25T22:48:39;997.8;;;14.8;100
45789;BME280;31492;54.856;26.318;2022-07-25T22:53:39;997.8;;;14.8;100
45789;BME280;31492;54.856;26.318;2022-07-25T22:58:39;997.8;;;14.8;100
45789;BME280;31492;54.856;26.318;2022-07-25T23:03:39;997.8;;;14.8;100
45789;BME280;31492;54.856;26.318;2022-07-25T23:08:39;997.8;;;14.8;100
45789;BME280;31492;54.856;26.318;2022-07-25T23:13:39;997.8;;;14.8;100
45789;BME280;31492;54.856;26.318;2022-07-25T23:18:39;997.8;;;14.8;100
45789;BME280;31492;54.856;26.318;2022-07-25T23:23:39;997.8;;;14.8;100
45789;BME280;31492;54.856;26.318;2022-07-25T23:28:39;997.8;;;14.8;100
45789;BME280;31492;54.856;26.318;2022-07-25T23:33:39;997.8;;;14.8;100
45789;BME280;31492;54.856;26.318;2022-07-25T23:38:39;997.8;;;14.8;100
45789;BME280;31492;54.856;26.318;2022-07-25T23:43:39;997.8;;;14.8;100
45789;BME280;31492;54.856;26.318;2022-07-25T23:48:39;997.8;;;14.8;100
45789;BME280;31492;54.856;26.318;2022-07-25T23:53:39;997.8;;;14.8;100
45789;BME280;31492;54.856;26.318;2022-07-25T23:58:39;997.8;;;14.8;100
